createdAt,value
2022-12-14T00:01:26.963Z,11.40
2022-12-14T00:03:59.934Z,7.68
2022-12-14T00:06:32.118Z,8.25
2022-12-14T00:09:04.044Z,8.75
2022-12-14T00:11:35.845Z,6.60
2022-12-14T00:14:08.687Z,6.10
2022-12-14T00:16:40.187Z,9.23
2022-12-14T00:19:10.783Z,7.90
2022-12-14T00:21:40.981Z,13.43
2022-12-14T00:24:10.817Z,12.82
2022-12-14T00:26:42.771Z,6.50
2022-12-14T00:29:14.186Z,9.35
2022-12-14T00:31:44.350Z,12.15
2022-12-14T00:34:18.523Z,8.05
2022-12-14T00:36:48.444Z,10.38
2022-12-14T00:39:18.154Z,12.32
2022-12-14T00:41:50.479Z,18.90
2022-12-14T00:44:19.617Z,9.80
2022-12-14T00:46:49.853Z,15.32
2022-12-14T00:49:19.048Z,11.95
2022-12-14T00:51:49.082Z,9.05
2022-12-14T00:54:18.583Z,9.15
2022-12-14T00:56:49.719Z,7.28
2022-12-14T00:59:25.692Z,7.97
2022-12-14T01:01:56.676Z,10.55
2022-12-14T01:04:26.435Z,7.97
2022-12-14T01:06:57.438Z,9.63
2022-12-14T01:09:28.604Z,9.32
2022-12-14T01:12:00.033Z,13.35
2022-12-14T01:14:29.048Z,11.13
2022-12-14T01:16:59.262Z,12.23
2022-12-14T01:19:29.018Z,8.95
2022-12-14T01:21:59.560Z,10.13
2022-12-14T01:24:28.778Z,8.25
2022-12-14T01:26:59.103Z,9.02
2022-12-14T01:29:29.504Z,11.50
2022-12-14T01:31:59.038Z,9.95
2022-12-14T01:34:28.920Z,10.00
2022-12-14T01:36:58.016Z,13.20
2022-12-14T01:39:28.221Z,9.32
2022-12-14T01:41:58.341Z,9.55
2022-12-14T01:44:58.057Z,10.88
2022-12-14T01:47:32.376Z,5.88
2022-12-14T01:50:07.547Z,7.70
2022-12-14T01:52:40.894Z,10.50
2022-12-14T01:55:12.405Z,8.02
2022-12-14T01:57:45.133Z,10.13
2022-12-14T02:00:17.175Z,9.88
2022-12-14T02:02:51.655Z,11.77
2022-12-14T02:05:22.834Z,10.60
2022-12-14T02:07:53.356Z,16.48
2022-12-14T02:10:24.198Z,6.93
2022-12-14T02:12:59.281Z,8.02
2022-12-14T02:15:30.981Z,8.85
2022-12-14T02:17:59.980Z,9.45
2022-12-14T02:20:34.932Z,12.80
2022-12-14T02:23:43.746Z,8.23
2022-12-14T02:26:32.112Z,7.35
2022-12-14T02:29:35.556Z,10.88
2022-12-14T02:32:20.683Z,9.05
2022-12-14T02:34:59.865Z,11.93
2022-12-14T02:37:37.116Z,6.97
2022-12-14T02:40:20.134Z,7.10
2022-12-14T02:43:00.498Z,9.50
2022-12-14T02:45:38.151Z,6.57
2022-12-14T02:48:10.675Z,8.73
2022-12-14T02:50:45.155Z,9.73
2022-12-14T02:53:21.860Z,6.60
2022-12-14T02:55:52.595Z,6.88
2022-12-14T02:58:26.168Z,11.52
2022-12-14T03:00:58.104Z,8.38
2022-12-14T03:03:28.986Z,9.73
2022-12-14T03:05:59.871Z,9.13
2022-12-14T03:08:31.363Z,7.28
2022-12-14T03:11:03.086Z,7.32
2022-12-14T03:13:37.288Z,9.77
2022-12-14T03:16:13.676Z,10.95
2022-12-14T03:18:47.349Z,8.98
2022-12-14T03:21:20.361Z,9.70
2022-12-14T03:23:51.249Z,10.35
2022-12-14T03:26:26.151Z,8.23
2022-12-14T03:29:00.027Z,14.98
2022-12-14T03:31:35.917Z,9.25
2022-12-14T03:34:07.116Z,10.77
2022-12-14T03:36:46.144Z,11.07
2022-12-14T03:39:20.783Z,9.95
2022-12-14T03:41:57.234Z,11.15
2022-12-14T03:44:33.992Z,10.25
2022-12-14T03:47:15.493Z,10.95
2022-12-14T03:49:58.536Z,9.25
2022-12-14T03:52:33.467Z,8.80
2022-12-14T03:55:12.979Z,10.52
2022-12-14T03:58:07.361Z,9.65
2022-12-14T04:03:20.846Z,8.38
2022-12-14T04:05:55.621Z,11.65
2022-12-14T04:08:33.536Z,7.47
2022-12-14T04:11:22.356Z,9.95
2022-12-14T04:14:16.250Z,12.77
2022-12-14T04:20:05.832Z,7.57
2022-12-14T04:22:40.323Z,10.60
2022-12-14T04:25:45.123Z,7.85
2022-12-14T04:28:29.831Z,6.55
2022-12-14T04:31:04.949Z,5.55
2022-12-14T04:33:50.621Z,14.82
2022-12-14T04:36:25.734Z,12.63
2022-12-14T04:39:01.290Z,8.65
2022-12-14T04:41:35.295Z,7.68
2022-12-14T04:44:09.248Z,16.40
2022-12-14T04:46:41.410Z,9.10
2022-12-14T04:49:20.760Z,8.75
2022-12-14T04:51:58.183Z,11.10
2022-12-14T04:54:34.793Z,9.35
2022-12-14T04:57:09.091Z,9.90
2022-12-14T04:59:38.722Z,9.68
2022-12-14T05:02:22.141Z,15.18
2022-12-14T05:04:59.333Z,11.68
2022-12-14T05:07:38.584Z,8.25
2022-12-14T05:10:11.475Z,6.97
2022-12-14T05:12:44.961Z,9.85
2022-12-14T05:15:17.610Z,8.07
2022-12-14T05:17:46.044Z,7.18
2022-12-14T05:20:19.785Z,8.10
2022-12-14T05:25:18.522Z,5.03
2022-12-14T05:27:47.428Z,7.28
2022-12-14T05:30:16.049Z,12.73
2022-12-14T05:32:45.339Z,6.05
2022-12-14T05:35:15.182Z,10.82
2022-12-14T05:37:44.757Z,15.48
2022-12-14T05:40:15.514Z,11.52
2022-12-14T05:42:45.998Z,10.93
2022-12-14T05:45:17.758Z,7.75
2022-12-14T05:47:46.686Z,8.65
2022-12-14T05:50:15.224Z,10.57
2022-12-14T05:52:44.228Z,12.65
2022-12-14T05:55:12.814Z,7.70
2022-12-14T05:57:44.822Z,10.73
2022-12-14T06:00:14.769Z,19.50
2022-12-14T06:02:43.636Z,9.15
2022-12-14T06:05:12.534Z,10.73
2022-12-14T06:07:41.996Z,12.50
2022-12-14T06:10:12.259Z,6.75
2022-12-14T06:12:42.677Z,10.75
2022-12-14T06:15:12.632Z,9.35
2022-12-14T06:17:44.975Z,7.78
2022-12-14T06:20:15.108Z,9.75
2022-12-14T06:22:47.733Z,10.93
2022-12-14T06:25:17.516Z,23.13
2022-12-14T06:27:48.105Z,15.07
2022-12-14T06:30:17.411Z,14.15
2022-12-14T06:32:47.383Z,10.32
2022-12-14T06:35:17.775Z,7.68
2022-12-14T06:37:49.026Z,7.95
2022-12-14T06:40:17.933Z,9.30
2022-12-14T06:42:49.610Z,8.82
2022-12-14T06:45:18.960Z,8.88
2022-12-14T06:47:47.982Z,7.03
2022-12-14T06:50:17.713Z,11.05
2022-12-14T06:52:47.426Z,10.40
2022-12-14T06:55:17.116Z,10.60
2022-12-14T06:57:47.023Z,6.80
2022-12-14T07:00:17.478Z,11.00
2022-12-14T07:02:46.774Z,6.85
2022-12-14T07:05:16.290Z,12.07
2022-12-14T07:07:45.092Z,7.95
2022-12-14T07:10:14.867Z,8.98
2022-12-14T07:12:44.290Z,8.07
2022-12-14T07:15:13.324Z,9.80
2022-12-14T07:17:45.245Z,13.40
2022-12-14T07:20:14.463Z,9.85
2022-12-14T07:22:43.633Z,7.82
2022-12-14T07:25:18.855Z,11.63
2022-12-14T07:27:49.138Z,13.60
2022-12-14T07:30:18.658Z,8.95
2022-12-14T07:32:52.231Z,11.25
2022-12-14T07:35:22.560Z,11.10
2022-12-14T07:37:52.309Z,6.88
2022-12-14T07:40:22.431Z,6.25
2022-12-14T07:42:52.288Z,7.32
2022-12-14T07:45:22.060Z,10.30
2022-12-14T07:47:52.053Z,11.88
2022-12-14T07:50:22.287Z,8.70
2022-12-14T07:52:51.514Z,8.32
2022-12-14T07:55:20.573Z,8.20
2022-12-14T07:57:50.520Z,14.65
2022-12-14T08:00:20.719Z,11.02
2022-12-14T08:02:50.074Z,14.88
2022-12-14T08:05:20.449Z,7.40
2022-12-14T08:07:49.253Z,11.35
2022-12-14T08:10:17.883Z,9.68
2022-12-14T08:12:48.071Z,11.85
2022-12-14T08:15:17.211Z,9.00
2022-12-14T08:17:45.727Z,12.63
2022-12-14T08:20:15.136Z,10.00
2022-12-14T08:22:45.539Z,7.28
2022-12-14T08:25:14.404Z,9.60
2022-12-14T08:27:43.511Z,8.32
2022-12-14T08:30:13.588Z,9.13
2022-12-14T08:32:42.650Z,10.50
2022-12-14T08:35:12.118Z,12.73
2022-12-14T08:37:47.164Z,16.20
2022-12-14T08:40:17.523Z,10.00
2022-12-14T08:42:45.900Z,8.63
2022-12-14T08:45:14.319Z,11.68
2022-12-14T08:47:43.800Z,10.77
2022-12-14T08:50:12.782Z,10.57
2022-12-14T08:52:41.347Z,10.80
2022-12-14T08:55:10.535Z,20.92
2022-12-14T08:57:41.959Z,9.25
2022-12-14T09:00:11.886Z,5.88
2022-12-14T09:02:40.547Z,10.50
2022-12-14T09:05:11.102Z,9.15
2022-12-14T09:07:39.425Z,10.75
2022-12-14T09:10:09.336Z,14.20
2022-12-14T09:12:40.069Z,11.05
2022-12-14T09:15:09.933Z,17.52
2022-12-14T09:17:38.695Z,12.05
2022-12-14T09:20:08.305Z,11.95
2022-12-14T09:22:37.362Z,8.13
2022-12-14T09:25:06.283Z,13.55
2022-12-14T09:27:35.727Z,9.90
2022-12-14T09:30:07.585Z,15.68
2022-12-14T09:32:36.834Z,12.52
2022-12-14T09:35:06.843Z,6.53
2022-12-14T09:37:36.735Z,11.25
2022-12-14T09:40:06.514Z,14.73
2022-12-14T09:42:53.166Z,12.65
2022-12-14T09:45:31.951Z,11.73
2022-12-14T09:48:10.222Z,11.52
2022-12-14T09:50:41.124Z,12.85
2022-12-14T09:53:14.941Z,20.98
2022-12-14T09:58:20.349Z,10.93
2022-12-14T10:00:57.738Z,14.00
2022-12-14T10:03:45.296Z,10.32
2022-12-14T10:06:32.926Z,12.50
2022-12-14T10:09:11.665Z,15.48
2022-12-14T10:11:50.753Z,15.65
2022-12-14T10:14:27.483Z,14.82
2022-12-14T10:17:06.058Z,11.80
2022-12-14T10:19:40.875Z,10.75
2022-12-14T10:22:16.271Z,13.27
2022-12-14T10:24:49.760Z,11.23
2022-12-14T10:27:23.559Z,10.45
2022-12-14T10:30:04.244Z,10.93
2022-12-14T10:32:37.456Z,9.00
2022-12-14T10:35:28.568Z,10.65
2022-12-14T10:38:03.102Z,12.32
2022-12-14T10:40:34.982Z,16.08
2022-12-14T10:43:23.066Z,15.52
2022-12-14T10:45:59.757Z,15.43
2022-12-14T10:48:46.517Z,15.07
2022-12-14T10:51:21.482Z,15.00
2022-12-14T10:53:54.586Z,13.00
2022-12-14T10:56:29.904Z,15.18
2022-12-14T10:59:40.756Z,13.10
2022-12-14T11:02:20.279Z,16.60
2022-12-14T11:04:53.003Z,13.70
2022-12-14T11:07:23.281Z,19.10
2022-12-14T11:09:51.862Z,14.52
2022-12-14T11:12:24.442Z,15.57
2022-12-14T11:14:56.126Z,16.73
2022-12-14T11:17:38.116Z,16.48
2022-12-14T11:20:23.063Z,14.13
2022-12-14T11:22:55.014Z,22.52
2022-12-14T11:25:33.563Z,19.20
2022-12-14T11:28:07.310Z,15.10
2022-12-14T11:30:37.947Z,17.00
2022-12-14T11:33:07.411Z,16.90
2022-12-14T11:35:38.385Z,16.42
2022-12-14T11:38:07.583Z,13.95
2022-12-14T11:40:38.524Z,16.08
2022-12-14T11:43:07.933Z,16.55
2022-12-14T11:45:38.832Z,21.85
2022-12-14T11:48:22.791Z,21.27
2022-12-14T11:50:56.418Z,23.23
2022-12-14T11:53:25.189Z,16.83
2022-12-14T11:55:57.783Z,17.75
2022-12-14T11:58:30.287Z,18.95
2022-12-14T12:01:04.987Z,23.10
2022-12-14T12:03:42.297Z,16.65
2022-12-14T12:06:16.086Z,15.70
2022-12-14T12:08:46.702Z,16.77
2022-12-14T12:11:20.203Z,17.33
2022-12-14T12:13:53.594Z,14.63
2022-12-14T12:19:05.263Z,10.35
2022-12-14T12:21:43.313Z,13.38
2022-12-14T12:24:21.500Z,14.00
2022-12-14T12:26:53.454Z,15.45
2022-12-14T12:29:32.053Z,14.95
2022-12-14T12:32:13.561Z,16.67
2022-12-14T12:34:49.534Z,18.05
2022-12-14T12:37:27.400Z,15.45
2022-12-14T12:40:03.805Z,15.43
2022-12-14T12:42:41.936Z,18.35
2022-12-14T12:45:22.243Z,15.23
2022-12-14T12:47:56.998Z,17.38
2022-12-14T12:50:31.388Z,15.73
2022-12-14T12:53:04.972Z,20.98
2022-12-14T12:55:39.960Z,25.52
2022-12-14T12:58:17.091Z,17.52
2022-12-14T13:00:51.739Z,14.38
2022-12-14T13:03:24.688Z,19.20
2022-12-14T13:05:56.100Z,15.32
2022-12-14T13:08:33.515Z,20.08
2022-12-14T13:11:25.623Z,15.65
2022-12-14T13:13:59.714Z,15.90
2022-12-14T13:16:37.124Z,17.85
2022-12-14T13:22:06.631Z,15.38
2022-12-14T13:24:38.620Z,11.80
2022-12-14T13:27:33.038Z,21.05
2022-12-14T13:30:22.641Z,14.85
2022-12-14T13:33:24.373Z,20.15
2022-12-14T13:36:20.484Z,12.63
2022-12-14T13:39:04.049Z,13.88
2022-12-14T13:41:42.738Z,16.25
2022-12-14T13:44:37.450Z,13.40
2022-12-14T13:47:17.480Z,14.93
2022-12-14T13:52:47.842Z,12.55
2022-12-14T13:55:33.893Z,15.98
2022-12-14T13:58:19.227Z,14.82
2022-12-14T14:01:02.552Z,19.10
2022-12-14T14:03:54.688Z,11.80
2022-12-14T14:06:37.512Z,15.05
2022-12-14T14:09:43.058Z,15.10
2022-12-14T14:12:44.048Z,12.00
2022-12-14T14:22:27.496Z,14.32
2022-12-14T14:25:01.908Z,24.10
2022-12-14T14:27:37.670Z,11.73
2022-12-14T14:30:24.266Z,17.20
2022-12-14T14:33:07.530Z,15.52
2022-12-14T14:35:42.019Z,12.05
2022-12-14T14:38:26.464Z,14.77
2022-12-14T14:41:15.942Z,11.15
2022-12-14T14:43:54.150Z,14.38
2022-12-14T14:46:34.634Z,13.75
2022-12-14T14:49:06.962Z,15.45
2022-12-14T14:51:39.505Z,20.90
2022-12-14T14:55:16.305Z,11.02
2022-12-14T14:57:56.946Z,16.13
2022-12-14T15:00:26.268Z,15.05
2022-12-14T15:02:57.412Z,12.85
2022-12-14T15:05:42.105Z,14.95
2022-12-14T15:08:21.381Z,16.00
2022-12-14T15:10:54.176Z,17.30
2022-12-14T15:13:26.790Z,24.50
2022-12-14T15:15:56.750Z,24.50
2022-12-14T15:18:28.224Z,16.13
2022-12-14T15:21:02.294Z,17.25
2022-12-14T15:23:37.537Z,17.98
2022-12-14T15:26:16.592Z,16.13
2022-12-14T15:28:49.439Z,19.75
2022-12-14T15:31:18.215Z,22.70
2022-12-14T15:33:49.282Z,24.58
2022-12-14T15:36:22.213Z,19.85
2022-12-14T15:38:55.212Z,25.90
2022-12-14T15:41:26.291Z,20.20
2022-12-14T15:43:59.604Z,18.33
2022-12-14T15:46:31.998Z,20.58
2022-12-14T15:49:04.071Z,17.38
2022-12-14T15:51:37.654Z,21.45
2022-12-14T15:54:08.897Z,18.17
2022-12-14T15:56:41.192Z,20.65
2022-12-14T15:59:18.642Z,19.23
2022-12-14T16:01:56.776Z,25.38
2022-12-14T16:04:29.394Z,21.90
2022-12-14T16:07:09.096Z,18.90
2022-12-14T16:09:50.485Z,19.63
2022-12-14T16:12:29.032Z,25.38
2022-12-14T16:14:59.808Z,25.38
2022-12-14T16:17:32.770Z,22.00
2022-12-14T16:20:03.831Z,21.13
2022-12-14T16:22:34.821Z,21.33
2022-12-14T16:25:19.294Z,17.45
2022-12-14T16:27:50.730Z,17.33
2022-12-14T16:30:25.838Z,25.63
2022-12-14T16:33:07.640Z,19.88
2022-12-14T16:35:39.196Z,22.98
2022-12-14T16:38:13.715Z,23.13
2022-12-14T16:40:45.188Z,26.58
2022-12-14T16:43:29.369Z,19.58
2022-12-14T16:46:15.275Z,20.90
2022-12-14T16:48:50.377Z,22.80
2022-12-14T16:51:58.759Z,25.92
2022-12-14T16:54:28.827Z,22.13
2022-12-14T16:57:01.319Z,21.13
2022-12-14T16:59:37.764Z,23.80
2022-12-14T17:02:11.633Z,21.75
2022-12-14T17:04:44.079Z,20.23
2022-12-14T17:07:17.450Z,20.20
2022-12-14T17:09:50.158Z,25.23
2022-12-14T17:12:21.707Z,20.03
2022-12-14T17:14:51.023Z,22.58
2022-12-14T17:17:24.607Z,23.67
2022-12-14T17:19:54.086Z,25.23
2022-12-14T17:22:26.679Z,25.92
2022-12-14T17:24:57.906Z,21.02
2022-12-14T17:27:27.850Z,20.02
2022-12-14T17:29:57.975Z,26.25
2022-12-14T17:32:31.674Z,23.60
2022-12-14T17:35:00.505Z,21.40
2022-12-14T17:37:35.945Z,33.70
2022-12-14T17:40:09.128Z,21.85
2022-12-14T17:42:41.422Z,20.52
2022-12-14T17:45:20.408Z,23.30
2022-12-14T17:47:49.649Z,21.13
2022-12-14T17:50:21.934Z,23.35
2022-12-14T17:52:51.433Z,18.80
2022-12-14T17:55:24.708Z,19.08
2022-12-14T17:57:54.327Z,27.85
2022-12-14T18:00:42.115Z,23.02
2022-12-14T18:03:12.186Z,21.52
2022-12-14T18:05:48.011Z,25.27
2022-12-14T18:08:17.427Z,27.27
2022-12-14T18:10:48.483Z,24.92
2022-12-14T18:13:17.797Z,22.60
2022-12-14T18:15:50.829Z,22.00
2022-12-14T18:18:20.260Z,22.85
2022-12-14T18:20:54.107Z,23.65
2022-12-14T18:25:54.727Z,23.17
2022-12-14T18:28:23.608Z,28.25
2022-12-14T18:30:58.338Z,22.48
2022-12-14T18:33:29.004Z,33.83
2022-12-14T18:35:59.125Z,27.45
2022-12-14T18:38:28.629Z,19.63
2022-12-14T18:41:01.872Z,23.10
2022-12-14T18:43:31.773Z,21.83
2022-12-14T18:46:01.848Z,19.17
2022-12-14T18:48:31.798Z,26.45
2022-12-14T18:51:01.094Z,24.73
2022-12-14T18:53:30.573Z,26.33
2022-12-14T18:56:02.279Z,27.05
2022-12-14T18:58:31.357Z,28.88
2022-12-14T19:01:03.130Z,31.45
2022-12-14T19:03:36.673Z,27.33
2022-12-14T19:06:42.395Z,28.23
2022-12-14T19:08:57.442Z,23.05
2022-12-14T19:11:32.669Z,26.08
2022-12-14T19:14:02.439Z,36.17
2022-12-14T19:16:31.658Z,22.88
2022-12-14T19:19:02.225Z,21.23
2022-12-14T19:21:32.072Z,27.10
2022-12-14T19:24:01.085Z,25.75
2022-12-14T19:26:33.178Z,29.67
2022-12-14T19:29:02.252Z,28.85
2022-12-14T19:31:31.379Z,25.08
2022-12-14T19:34:01.244Z,31.60
2022-12-14T19:36:30.439Z,32.05
2022-12-14T19:39:01.208Z,30.95
2022-12-14T19:41:33.480Z,27.00
2022-12-14T19:44:03.161Z,29.70
2022-12-14T19:46:32.122Z,29.50
2022-12-14T19:49:02.632Z,26.63
2022-12-14T19:51:31.725Z,29.42
2022-12-14T19:54:02.002Z,26.58
2022-12-14T19:56:33.125Z,26.92
2022-12-14T19:59:04.313Z,25.92
2022-12-14T20:01:39.644Z,27.73
2022-12-14T20:04:11.170Z,24.85
2022-12-14T20:06:40.812Z,28.50
2022-12-14T20:09:10.407Z,26.77
2022-12-14T20:11:42.118Z,31.50
2022-12-14T20:14:12.626Z,22.70
2022-12-14T20:16:41.969Z,29.33
2022-12-14T20:19:15.542Z,27.40
2022-12-14T20:21:44.268Z,25.20
2022-12-14T20:24:13.161Z,26.58
2022-12-14T20:26:43.595Z,28.55
2022-12-14T20:29:13.070Z,35.67
2022-12-14T20:31:42.497Z,23.40
2022-12-14T20:34:11.880Z,27.00
2022-12-14T20:36:41.927Z,36.00
2022-12-14T20:39:12.058Z,26.33
2022-12-14T20:41:42.228Z,29.85
2022-12-14T20:44:15.732Z,28.20
2022-12-14T20:46:46.574Z,36.17
2022-12-14T20:49:18.584Z,28.10
2022-12-14T20:51:49.902Z,26.52
2022-12-14T20:54:24.646Z,29.98
2022-12-14T20:56:53.945Z,24.45
2022-12-14T20:59:27.110Z,34.67
2022-12-14T21:01:57.556Z,29.95
2022-12-14T21:04:26.371Z,27.33
2022-12-14T21:06:54.943Z,25.77
2022-12-14T21:09:24.446Z,30.90
2022-12-14T21:12:10.751Z,27.15
2022-12-14T21:14:45.136Z,30.00
2022-12-14T21:17:17.124Z,28.55
2022-12-14T21:19:46.653Z,29.98
2022-12-14T21:22:17.896Z,20.85
2022-12-14T21:25:06.050Z,27.63
2022-12-14T21:27:38.718Z,23.70
2022-12-14T21:30:11.992Z,26.58
2022-12-14T21:32:42.033Z,22.42
2022-12-14T21:35:14.370Z,19.52
2022-12-14T21:37:44.285Z,23.15
2022-12-14T21:40:34.538Z,23.83
2022-12-14T21:43:02.661Z,22.85
2022-12-14T21:45:38.718Z,27.60
2022-12-14T21:48:08.416Z,26.77
2022-12-14T21:50:38.044Z,22.77
2022-12-14T21:53:06.964Z,25.23
2022-12-14T21:55:39.164Z,22.55
2022-12-14T21:58:18.373Z,25.63
2022-12-14T22:00:48.497Z,32.17
2022-12-14T22:03:17.605Z,33.90
2022-12-14T22:05:46.111Z,23.55
2022-12-14T22:08:17.041Z,25.48
2022-12-14T22:10:46.938Z,25.08
2022-12-14T22:13:16.066Z,19.40
2022-12-14T22:15:45.253Z,29.92
2022-12-14T22:18:19.234Z,25.80
2022-12-14T22:20:48.038Z,28.20
2022-12-14T22:23:17.238Z,28.17
2022-12-14T22:25:51.356Z,31.48
2022-12-14T22:28:20.128Z,29.58
2022-12-14T22:30:48.847Z,29.70
2022-12-14T22:33:18.755Z,19.23
2022-12-14T22:35:48.272Z,26.55
2022-12-14T22:38:16.749Z,24.50
2022-12-14T22:40:45.264Z,22.70
2022-12-14T22:43:14.573Z,25.13
2022-12-14T22:45:43.288Z,23.70
2022-12-14T22:48:11.596Z,21.20
2022-12-14T22:50:41.813Z,26.80
2022-12-14T22:53:10.451Z,20.35
2022-12-14T22:55:40.151Z,25.35
2022-12-14T22:58:12.866Z,18.67
2022-12-14T23:00:41.617Z,26.15
2022-12-14T23:03:10.394Z,20.20
2022-12-14T23:05:41.155Z,19.05
2022-12-14T23:08:09.771Z,24.85
2022-12-14T23:10:56.030Z,37.08
2022-12-14T23:13:41.888Z,19.58
2022-12-14T23:16:27.864Z,21.40
2022-12-14T23:19:14.181Z,21.83
2022-12-14T23:22:01.647Z,18.65
2022-12-14T23:24:47.168Z,19.70
2022-12-14T23:27:33.250Z,25.20
2022-12-14T23:30:21.738Z,24.73
2022-12-14T23:33:07.876Z,18.90
2022-12-14T23:35:53.904Z,19.52
2022-12-14T23:38:41.191Z,27.52
2022-12-14T23:41:27.083Z,26.27
2022-12-14T23:44:14.904Z,26.08
2022-12-14T23:47:01.581Z,25.88
2022-12-14T23:49:47.695Z,16.35
2022-12-14T23:52:33.773Z,23.52
2022-12-14T23:55:21.187Z,19.02
2022-12-14T23:58:06.963Z,23.88
